Time;durP1;ratioP1;P1;durP2;ratioP2;P2;SDS_P1;SDS_P2;PMS_P1;PMS_P2;Temp;Humidity;BMP_temperature;BMP_pressure;BME280_temperature;BME280_humidity;BME280_pressure;Samples;Min_cycle;Max_cycle;Signal;HPM_P1;HPM_P2
2022/08/20 00:00:15;;;;;;;17.77;11.53;;;;;;;20.85;69.62;100330.58;1647775;86;21215;-58
2022/08/20 00:03:30;;;;;;;18.98;11.38;;;;;;;20.85;69.71;100338.92;1644766;86;21303;-58
2022/08/20 00:06:36;;;;;;;14.05;10.58;;;;;;;20.85;69.73;100347.27;1625187;86;21259;-58
2022/08/20 00:09:44;;;;;;;12.50;11.03;;;;;;;20.84;69.81;100348.34;1628470;86;21290;-59
2022/08/20 00:12:53;;;;;;;11.57;10.23;;;;;;;20.80;69.79;100352.15;1627386;85;21283;-58
2022/08/20 00:16:01;;;;;;;13.55;10.23;;;;;;;20.79;69.90;100360.74;1626856;86;21227;-57
2022/08/20 00:19:08;;;;;;;13.22;10.55;;;;;;;20.78;69.96;100367.41;1620098;87;21280;-58
2022/08/20 00:22:16;;;;;;;13.32;9.65;;;;;;;20.78;70.07;100364.62;1627356;86;21249;-58
2022/08/20 00:25:23;;;;;;;13.50;10.23;;;;;;;20.78;70.15;100366.02;1645639;85;21251;-58
2022/08/20 00:28:28;;;;;;;10.32;8.85;;;;;;;20.78;70.19;100378.54;1644142;85;21316;-58
2022/08/20 00:31:36;;;;;;;12.65;8.70;;;;;;;20.76;70.23;100371.83;1636334;85;21339;-57
2022/08/20 00:34:42;;;;;;;12.63;9.95;;;;;;;20.76;70.32;100379.31;1583316;85;21234;-57
2022/08/20 00:37:48;;;;;;;11.18;8.78;;;;;;;20.75;70.36;100381.81;1648644;84;21680;-57
2022/08/20 00:41:03;;;;;;;13.30;8.95;;;;;;;20.75;70.41;100384.59;1618479;85;21291;-57
2022/08/20 00:44:17;;;;;;;10.78;8.90;;;;;;;20.71;70.40;100386.14;1609840;87;21271;-58
2022/08/20 00:47:26;;;;;;;11.38;8.23;;;;;;;20.69;70.50;100380.00;1609223;86;21263;-57
2022/08/20 00:50:38;;;;;;;13.00;7.85;;;;;;;20.66;70.51;100384.66;1645443;84;21219;-58
2022/08/20 00:53:44;;;;;;;9.88;7.62;;;;;;;20.63;70.55;100386.50;1639765;84;21306;-58
2022/08/20 00:56:52;;;;;;;10.58;7.75;;;;;;;20.61;70.60;100388.70;1628056;87;21292;-57
2022/08/20 00:59:58;;;;;;;10.90;8.03;;;;;;;20.60;70.72;100381.42;1638493;85;21211;-58
2022/08/20 01:03:04;;;;;;;9.78;8.40;;;;;;;20.59;70.82;100376.96;1647108;86;21315;-58
2022/08/20 01:06:10;;;;;;;9.58;7.80;;;;;;;20.58;70.90;100373.32;1639055;86;21243;-57
2022/08/20 01:09:16;;;;;;;9.43;8.10;;;;;;;20.59;71.01;100379.20;1637062;85;21243;-56
2022/08/20 01:12:24;;;;;;;11.63;8.25;;;;;;;20.58;71.00;100383.06;1636733;86;21254;-57
2022/08/20 01:15:33;;;;;;;10.88;7.87;;;;;;;20.57;71.07;100382.77;1642097;85;21282;-58
2022/08/20 01:18:41;;;;;;;12.15;8.20;;;;;;;20.55;71.08;100384.11;1629850;83;21242;-58
2022/08/20 01:21:47;;;;;;;10.00;8.28;;;;;;;20.53;71.19;100375.15;1579083;86;21297;-57
2022/08/20 01:24:53;;;;;;;10.13;8.00;;;;;;;20.52;71.23;100379.85;1617265;84;21812;-58
2022/08/20 01:28:01;;;;;;;9.38;7.85;;;;;;;20.50;71.22;100377.84;1613656;86;21264;-58
2022/08/20 01:31:07;;;;;;;10.05;7.75;;;;;;;20.44;71.12;100381.59;1624081;85;21291;-58
2022/08/20 01:34:17;;;;;;;9.28;8.35;;;;;;;20.39;71.25;100386.20;1632581;86;21254;-58
2022/08/20 01:37:22;;;;;;;9.28;7.95;;;;;;;20.39;71.40;100381.46;1631425;83;21263;-57
2022/08/20 01:40:38;;;;;;;9.85;7.85;;;;;;;20.38;71.45;100387.27;1649851;86;21267;-59
2022/08/20 01:43:44;;;;;;;9.18;7.72;;;;;;;20.34;71.41;100375.77;1633304;85;21288;-58
2022/08/20 01:46:52;;;;;;;9.90;7.65;;;;;;;20.29;71.39;100381.22;1642794;85;21227;-58
2022/08/20 01:50:02;;;;;;;11.60;7.47;;;;;;;20.26;71.51;100373.37;1645669;84;21239;-59
2022/08/20 01:53:28;;;;;;;7.92;7.08;;;;;;;20.24;71.58;100376.06;1615136;86;21230;-58
2022/08/20 01:56:36;;;;;;;9.05;7.45;;;;;;;20.23;71.69;100378.55;1618916;87;21263;-57
2022/08/20 01:59:42;;;;;;;10.18;7.17;;;;;;;20.20;71.77;100373.47;1643081;86;21239;-57
2022/08/20 02:02:49;;;;;;;10.88;7.12;;;;;;;20.17;71.72;100367.83;1652146;85;21265;-58
2022/08/20 02:05:56;;;;;;;9.25;7.08;;;;;;;20.15;71.76;100377.50;1642412;86;21292;-57
2022/08/20 02:09:06;;;;;;;10.38;7.20;;;;;;;20.12;71.87;100377.38;1629973;86;21236;-58
2022/08/20 02:12:16;;;;;;;9.70;7.28;;;;;;;20.09;71.86;100378.42;1628450;86;21291;-57
2022/08/20 02:15:22;;;;;;;10.15;7.33;;;;;;;20.07;71.96;100384.75;1623822;87;21215;-57
2022/08/20 02:18:29;;;;;;;8.15;7.30;;;;;;;20.02;72.08;100379.05;1642956;84;21255;-57
2022/08/20 02:21:37;;;;;;;8.38;7.00;;;;;;;20.03;72.18;100382.13;1625299;87;21306;-57
2022/08/20 02:24:44;;;;;;;9.18;6.70;;;;;;;20.03;72.25;100380.73;1638604;86;21269;-57
2022/08/20 02:27:52;;;;;;;10.32;7.00;;;;;;;20.02;72.25;100393.81;1634611;87;21271;-57
2022/08/20 02:31:00;;;;;;;7.95;6.62;;;;;;;20.01;72.33;100396.27;1635728;86;21606;-58
2022/08/20 02:34:08;;;;;;;7.47;6.55;;;;;;;20.00;72.37;100397.36;1638059;85;21224;-58
2022/08/20 02:37:17;;;;;;;8.80;7.12;;;;;;;19.96;72.31;100406.41;1654174;85;21253;-57
2022/08/20 02:40:26;;;;;;;8.05;7.08;;;;;;;19.92;72.36;100409.34;1628079;87;21242;-57
2022/08/20 02:43:32;;;;;;;8.55;7.42;;;;;;;19.91;72.49;100407.13;1618874;88;21231;-56
2022/08/20 02:46:38;;;;;;;8.03;6.97;;;;;;;19.92;72.56;100412.12;1636369;85;21243;-58
2022/08/20 02:49:45;;;;;;;9.13;7.08;;;;;;;19.93;72.65;100418.00;1616583;85;21254;-59
2022/08/20 02:52:52;;;;;;;10.58;7.22;;;;;;;19.92;72.68;100415.75;1610366;88;21267;-58
2022/08/20 02:55:58;;;;;;;10.05;6.97;;;;;;;19.92;72.76;100419.92;1624072;86;21283;-57
2022/08/20 02:59:04;;;;;;;10.43;6.75;;;;;;;19.94;72.88;100417.77;1615412;87;21242;-57
2022/08/20 03:02:14;;;;;;;7.08;6.20;;;;;;;19.98;72.92;100422.31;1615449;86;21311;-57
2022/08/20 03:05:21;;;;;;;8.65;7.22;;;;;;;19.97;72.96;100421.98;1626370;85;21263;-57
2022/08/20 03:08:27;;;;;;;10.18;7.60;;;;;;;19.99;73.00;100426.25;1616359;85;21288;-57
2022/08/20 03:11:34;;;;;;;12.18;7.17;;;;;;;19.99;73.05;100425.39;1633189;86;21241;-57
2022/08/20 03:14:42;;;;;;;9.73;7.22;;;;;;;19.99;73.10;100429.55;1606441;86;21331;-58
2022/08/20 03:17:47;;;;;;;11.03;7.47;;;;;;;20.00;73.14;100428.46;1628865;85;21267;-57
2022/08/20 03:20:55;;;;;;;13.00;7.03;;;;;;;19.99;73.17;100430.95;1614863;86;21265;-56
2022/08/20 03:24:00;;;;;;;10.78;7.65;;;;;;;19.99;73.15;100433.72;1621068;87;21804;-57
2022/08/20 03:27:05;;;;;;;11.15;7.42;;;;;;;19.97;73.17;100424.77;1621004;85;21263;-57
2022/08/20 03:30:15;;;;;;;10.00;7.17;;;;;;;19.98;73.26;100417.58;1638662;84;21291;-57
2022/08/20 03:33:19;;;;;;;9.43;7.08;;;;;;;20.00;73.25;100427.07;1642750;84;21305;-57
2022/08/20 03:36:29;;;;;;;9.50;7.53;;;;;;;20.00;73.28;100425.15;1632158;86;21247;-58
2022/08/20 03:39:35;;;;;;;10.65;7.00;;;;;;;20.04;73.33;100429.70;1654913;85;21342;-57
2022/08/20 03:42:41;;;;;;;11.48;7.22;;;;;;;20.07;73.38;100428.69;1595284;86;21258;-57
2022/08/20 03:45:48;;;;;;;10.45;7.58;;;;;;;20.10;73.40;100427.36;1632177;86;21302;-57
2022/08/20 03:48:55;;;;;;;13.08;7.90;;;;;;;20.15;73.44;100426.14;1621831;87;21263;-57
2022/08/20 03:52:02;;;;;;;20.65;10.10;;;;;;;20.18;73.36;100424.28;1603510;85;21236;-58
2022/08/20 03:55:08;;;;;;;17.52;7.97;;;;;;;20.25;73.46;100418.05;1598465;87;21282;-58
2022/08/20 03:58:16;;;;;;;15.38;7.80;;;;;;;20.34;73.48;100412.48;1617446;85;21238;-58
2022/08/20 04:01:25;;;;;;;15.80;7.40;;;;;;;20.39;73.42;100413.44;1621747;86;21318;-57
2022/08/20 04:04:33;;;;;;;16.42;7.30;;;;;;;20.48;73.53;100408.39;1595711;88;21234;-57
2022/08/20 04:07:43;;;;;;;23.27;7.53;;;;;;;20.57;73.57;100415.29;1598863;86;21287;-58
2022/08/20 04:10:49;;;;;;;15.88;7.10;;;;;;;20.64;73.60;100404.91;1612916;88;21259;-58
2022/08/20 04:13:57;;;;;;;18.65;7.67;;;;;;;20.72;73.52;100415.69;1612240;88;21252;-59
2022/08/20 04:17:03;;;;;;;23.60;7.10;;;;;;;20.75;73.52;100418.84;1619636;86;21260;-58
2022/08/20 04:20:14;;;;;;;17.60;6.33;;;;;;;20.79;73.46;100423.35;1622644;86;21328;-56
2022/08/20 04:23:20;;;;;;;19.75;7.00;;;;;;;20.82;73.48;100422.87;1619164;86;21206;-56
2022/08/20 04:26:26;;;;;;;22.02;6.53;;;;;;;20.85;73.40;100425.73;1594950;87;21265;-57
2022/08/20 04:29:32;;;;;;;26.40;6.50;;;;;;;20.85;73.41;100429.38;1613400;86;21266;-56
2022/08/20 04:32:40;;;;;;;19.87;6.45;;;;;;;20.91;73.51;100431.18;1621569;86;21800;-56
2022/08/20 04:35:46;;;;;;;25.45;6.78;;;;;;;20.98;73.51;100429.14;1613419;86;21638;-56
2022/08/20 04:38:51;;;;;;;26.20;6.47;;;;;;;21.04;73.48;100429.55;1659098;83;21242;-57
2022/08/20 04:41:58;;;;;;;29.77;6.28;;;;;;;21.10;73.48;100434.17;1635531;84;21235;-56
2022/08/20 04:45:05;;;;;;;29.87;6.60;;;;;;;21.15;73.44;100427.34;1650701;86;21207;-57
2022/08/20 04:48:13;;;;;;;23.60;6.78;;;;;;;21.19;73.38;100434.09;1652638;85;21286;-57
2022/08/20 04:51:21;;;;;;;33.80;7.15;;;;;;;21.24;73.33;100443.97;1657359;85;21268;-57
2022/08/20 04:54:29;;;;;;;32.08;6.72;;;;;;;21.28;73.29;100443.77;1664977;83;21248;-59
2022/08/20 04:57:37;;;;;;;22.98;6.37;;;;;;;21.29;73.19;100446.87;1681115;85;21283;-58
2022/08/20 05:00:44;;;;;;;23.73;6.50;;;;;;;21.32;73.23;100436.64;1636716;87;21275;-57
2022/08/20 05:03:56;;;;;;;35.52;7.28;;;;;;;21.41;73.32;100436.55;1659714;83;21310;-57
2022/08/20 05:07:01;;;;;;;31.25;6.53;;;;;;;21.48;73.32;100433.09;1652110;85;21279;-58
2022/08/20 05:10:10;;;;;;;30.57;6.22;;;;;;;21.54;73.23;100437.69;1653904;86;21244;-57
2022/08/20 05:13:15;;;;;;;26.50;6.80;;;;;;;21.62;73.24;100437.30;1668308;84;21263;-59
2022/08/20 05:16:24;;;;;;;32.23;6.85;;;;;;;21.67;73.18;100440.20;1667527;84;21286;-58
2022/08/20 05:19:29;;;;;;;26.42;6.08;;;;;;;21.76;73.22;100443.46;1643913;84;21217;-59
2022/08/20 05:22:37;;;;;;;31.20;6.72;;;;;;;21.79;73.10;100443.82;1646112;86;21227;-59
2022/08/20 05:25:46;;;;;;;35.28;7.83;;;;;;;21.87;73.12;100437.00;1678303;83;21314;-58
2022/08/20 05:28:55;;;;;;;39.53;7.20;;;;;;;21.94;73.05;100441.36;1665456;83;21789;-58
2022/08/20 05:32:01;;;;;;;39.80;6.45;;;;;;;22.05;73.02;100447.44;1637052;83;21324;-59
2022/08/20 05:35:11;;;;;;;37.48;7.58;;;;;;;22.16;72.93;100452.65;1667035;85;21596;-57
2022/08/20 05:38:21;;;;;;;32.08;6.17;;;;;;;22.23;72.79;100451.39;1653396;84;21242;-58
2022/08/20 05:41:31;;;;;;;34.78;6.25;;;;;;;22.26;72.62;100447.81;1640905;84;21768;-59
2022/08/20 05:44:36;;;;;;;44.08;6.42;;;;;;;22.34;72.63;100441.83;1669287;82;21383;-58
2022/08/20 05:47:47;;;;;;;37.95;6.72;;;;;;;22.46;72.61;100440.66;1679493;82;21279;-58
2022/08/20 05:50:55;;;;;;;34.20;6.58;;;;;;;22.52;72.58;100436.89;1669312;83;21285;-59
2022/08/20 05:54:02;;;;;;;34.67;6.65;;;;;;;22.61;72.54;100431.75;1670738;82;21311;-58
2022/08/20 05:57:08;;;;;;;22.35;5.80;;;;;;;22.67;72.48;100436.31;1658132;85;21235;-58
2022/08/20 06:00:18;;;;;;;30.72;6.25;;;;;;;22.74;72.42;100435.61;1686312;84;21779;-59
2022/08/20 06:06:52;;;;;;;34.20;5.87;;;;;;;22.83;72.20;100445.25;1622110;85;21252;-58
2022/08/20 06:10:00;;;;;;;30.85;6.05;;;;;;;22.89;72.14;100451.20;1627129;86;21414;-57
2022/08/20 06:13:07;;;;;;;32.65;5.78;;;;;;;22.90;72.12;100448.69;1642913;86;21733;-58
2022/08/20 06:16:14;;;;;;;43.45;6.72;;;;;;;22.95;72.04;100444.05;1602990;85;21378;-58
2022/08/20 06:19:21;;;;;;;41.63;6.65;;;;;;;22.97;72.05;100439.06;1663514;81;21302;-58
2022/08/20 06:22:28;;;;;;;46.45;7.62;;;;;;;23.02;72.02;100441.95;1643493;84;21270;-58
2022/08/20 06:25:36;;;;;;;42.62;6.83;;;;;;;23.10;72.01;100433.10;1653791;86;21711;-58
2022/08/20 06:28:43;;;;;;;39.60;6.60;;;;;;;23.18;72.07;100424.86;1661029;86;21228;-58
2022/08/20 06:31:51;;;;;;;43.00;6.90;;;;;;;23.24;72.02;100422.43;1657738;85;21247;-59
2022/08/20 06:35:00;;;;;;;35.28;6.67;;;;;;;23.29;71.89;100424.77;1646352;85;21274;-60
2022/08/20 06:38:11;;;;;;;33.48;6.62;;;;;;;23.38;71.87;100426.58;1667984;84;21581;-57
2022/08/20 06:41:20;;;;;;;35.50;6.58;;;;;;;23.43;71.78;100421.92;1679355;84;21239;-57
2022/08/20 06:44:27;;;;;;;52.93;8.00;;;;;;;23.47;71.80;100423.61;1670620;86;21602;-57
2022/08/20 06:47:33;;;;;;;34.53;7.47;;;;;;;23.49;71.72;100429.26;1673157;83;21235;-56
2022/08/20 06:50:45;;;;;;;34.13;6.42;;;;;;;23.53;71.60;100423.43;1643114;83;21654;-56
2022/08/20 06:53:50;;;;;;;48.92;8.55;;;;;;;23.56;71.49;100424.30;1657960;84;21300;-57
2022/08/20 06:56:56;;;;;;;47.50;6.80;;;;;;;23.56;71.44;100419.29;1657245;83;21331;-58
2022/08/20 07:00:02;;;;;;;37.15;6.80;;;;;;;23.61;71.38;100434.16;1617801;86;21346;-58
2022/08/20 07:03:11;;;;;;;36.17;6.42;;;;;;;23.63;71.28;100422.72;1622672;83;21262;-58
2022/08/20 07:06:18;;;;;;;38.65;6.30;;;;;;;23.67;71.27;100430.89;1633118;86;21283;-59
2022/08/20 07:09:26;;;;;;;40.55;7.35;;;;;;;23.60;71.10;100426.89;1626025;86;21260;-57
2022/08/20 07:12:35;;;;;;;35.68;6.35;;;;;;;23.58;71.11;100428.23;1655684;86;21294;-59
2022/08/20 07:15:41;;;;;;;38.60;6.85;;;;;;;23.56;71.25;100423.48;1626481;86;21237;-59
2022/08/20 07:18:51;;;;;;;42.50;7.20;;;;;;;23.67;71.45;100428.09;1658679;84;21805;-59
2022/08/20 07:21:58;;;;;;;37.45;8.05;;;;;;;23.83;71.60;100431.92;1678920;84;21239;-58
2022/08/20 07:25:06;;;;;;;45.67;7.20;;;;;;;24.01;71.63;100425.45;1652599;86;21797;-59
2022/08/20 07:28:21;;;;;;;46.53;7.05;;;;;;;24.18;71.67;100423.40;1649642;85;21313;-58
2022/08/20 07:34:53;;;;;;;44.40;6.60;;;;;;;24.49;71.25;100407.77;1634107;84;20246;-59
2022/08/20 07:37:58;;;;;;;46.20;7.85;;;;;;;24.54;70.98;100408.67;1651467;84;21319;-57
2022/08/20 07:41:14;;;;;;;37.42;7.25;;;;;;;24.58;70.92;100405.61;1641146;86;21790;-57
2022/08/20 07:44:26;;;;;;;32.23;5.53;;;;;;;24.65;70.93;100405.39;1643909;84;21732;-58
2022/08/20 07:47:35;;;;;;;33.38;6.47;;;;;;;24.71;70.86;100405.20;1671925;83;22168;-58
2022/08/20 07:50:44;;;;;;;44.20;7.47;;;;;;;24.75;70.77;100410.55;1683925;84;21434;-58
2022/08/20 07:53:52;;;;;;;32.67;7.42;;;;;;;24.79;70.71;100408.91;1661158;84;21241;-58
2022/08/20 07:56:59;;;;;;;41.68;7.05;;;;;;;24.82;70.59;100418.17;1664155;84;21236;-60
2022/08/20 08:00:06;;;;;;;33.65;6.15;;;;;;;24.82;70.41;100415.38;1675238;81;21236;-58
2022/08/20 08:03:14;;;;;;;39.48;7.08;;;;;;;24.74;70.22;100418.67;1653837;85;21337;-57
2022/08/20 08:06:28;;;;;;;28.02;6.75;;;;;;;24.72;70.32;100420.88;1649790;85;21299;-57
2022/08/20 08:09:34;;;;;;;36.80;7.10;;;;;;;24.81;70.42;100419.30;1647296;84;21838;-58
2022/08/20 08:12:46;;;;;;;33.83;5.58;;;;;;;24.97;70.42;100423.06;1627314;86;21244;-59
2022/08/20 08:15:56;;;;;;;30.32;6.60;;;;;;;25.08;70.28;100411.62;1658304;84;21262;-56
2022/08/20 08:19:03;;;;;;;35.48;7.58;;;;;;;25.20;70.20;100415.64;1660310;82;21278;-57
2022/08/20 08:22:16;;;;;;;36.17;7.22;;;;;;;25.33;70.04;100419.92;1644860;83;21243;-57
2022/08/20 08:25:22;;;;;;;40.85;6.83;;;;;;;25.31;69.70;100415.98;1622976;86;21602;-59
2022/08/20 08:28:31;;;;;;;32.33;6.62;;;;;;;25.33;69.71;100412.36;1655884;84;21770;-60
2022/08/20 08:31:39;;;;;;;42.25;6.42;;;;;;;25.37;69.72;100406.52;1667013;84;21251;-56
2022/08/20 08:34:46;;;;;;;36.05;6.72;;;;;;;25.41;69.60;100416.64;1685447;83;21272;-57
2022/08/20 08:37:53;;;;;;;37.60;7.55;;;;;;;25.38;69.39;100419.44;1651940;85;21783;-58
2022/08/20 08:41:03;;;;;;;39.48;6.85;;;;;;;25.44;69.43;100410.48;1652535;83;21240;-57
2022/08/20 08:44:22;;;;;;;38.08;7.53;;;;;;;25.48;69.34;100409.66;1697242;83;21614;-58
2022/08/20 08:47:37;;;;;;;24.23;6.42;;;;;;;25.56;69.20;100405.52;1655985;86;21275;-59
2022/08/20 08:50:44;;;;;;;28.70;6.45;;;;;;;25.58;69.07;100408.31;1681305;84;21253;-59
2022/08/20 08:53:57;;;;;;;39.67;6.72;;;;;;;25.62;68.91;100401.06;1679690;83;21207;-59
2022/08/20 08:57:06;;;;;;;32.73;6.92;;;;;;;25.72;69.01;100400.26;1642764;83;21246;-56
2022/08/20 09:00:20;;;;;;;37.17;6.67;;;;;;;25.85;69.04;100394.11;1633344;86;21224;-56
2022/08/20 09:03:38;;;;;;;29.10;5.67;;;;;;;25.98;68.93;100398.66;1636552;84;21270;-56
2022/08/20 09:06:45;;;;;;;30.25;6.92;;;;;;;26.05;68.64;100396.45;1643377;85;21231;-58
2022/08/20 09:09:54;;;;;;;26.37;6.83;;;;;;;26.06;68.54;100395.91;1686279;84;21247;-57
2022/08/20 09:13:00;;;;;;;31.05;6.67;;;;;;;26.15;68.66;100397.04;1660473;84;21254;-56
2022/08/20 09:16:08;;;;;;;22.85;6.75;;;;;;;26.27;68.61;100393.43;1656148;82;22691;-57
2022/08/20 09:19:17;;;;;;;34.15;6.87;;;;;;;26.34;68.50;100381.35;1642888;84;21260;-59
2022/08/20 09:22:27;;;;;;;31.55;6.80;;;;;;;26.43;68.36;100383.33;1650065;84;21253;-58
2022/08/20 09:25:33;;;;;;;37.83;7.53;;;;;;;26.48;68.19;100375.50;1654248;83;21227;-58
2022/08/20 09:28:40;;;;;;;29.98;6.65;;;;;;;26.54;68.05;100374.37;1679583;84;21808;-58
2022/08/20 09:31:50;;;;;;;28.70;6.83;;;;;;;26.52;67.96;100371.54;1634632;86;21235;-57
2022/08/20 09:35:00;;;;;;;24.75;7.12;;;;;;;26.60;68.09;100376.05;1652647;85;21698;-58
2022/08/20 09:38:07;;;;;;;29.45;6.33;;;;;;;26.70;67.98;100377.48;1645814;86;21213;-58
2022/08/20 09:41:16;;;;;;;30.62;6.78;;;;;;;26.79;67.81;100378.59;1686973;83;21278;-58
2022/08/20 09:44:23;;;;;;;24.80;6.60;;;;;;;26.82;67.66;100368.75;1679706;84;22054;-57
2022/08/20 09:47:29;;;;;;;28.40;6.47;;;;;;;26.89;67.63;100370.73;1669762;84;21258;-57
2022/08/20 09:50:38;;;;;;;30.25;7.00;;;;;;;27.02;67.69;100372.37;1680494;83;21221;-57
2022/08/20 09:53:47;;;;;;;22.42;7.20;;;;;;;27.13;67.56;100372.63;1681025;84;21647;-57
2022/08/20 09:56:56;;;;;;;24.92;6.22;;;;;;;27.22;67.31;100370.95;1643734;85;21300;-58
2022/08/20 10:00:08;;;;;;;17.98;7.10;;;;;;;27.30;67.32;100377.42;1649719;85;21214;-58
2022/08/20 10:03:14;;;;;;;24.15;6.78;;;;;;;27.40;67.18;100378.78;1672132;83;21255;-58
2022/08/20 10:06:22;;;;;;;22.07;6.45;;;;;;;27.49;67.05;100372.86;1648737;85;21858;-57
2022/08/20 10:09:30;;;;;;;27.25;7.17;;;;;;;27.61;67.01;100371.95;1643740;85;21211;-56
2022/08/20 10:12:40;;;;;;;16.77;6.55;;;;;;;27.72;66.86;100372.74;1688695;83;21817;-57
2022/08/20 10:15:49;;;;;;;23.40;6.22;;;;;;;27.82;66.71;100373.55;1661096;82;21603;-59
2022/08/20 10:18:54;;;;;;;30.55;7.75;;;;;;;27.89;66.41;100371.02;1665903;84;21207;-57
2022/08/20 10:22:02;;;;;;;20.88;6.05;;;;;;;27.92;66.12;100371.84;1665317;83;21243;-59
2022/08/20 10:25:08;;;;;;;28.45;6.97;;;;;;;27.96;66.01;100367.30;1676949;83;21246;-58
2022/08/20 10:28:16;;;;;;;22.25;7.15;;;;;;;28.03;65.95;100374.31;1637715;83;21671;-58
2022/08/20 10:31:22;;;;;;;26.23;6.90;;;;;;;28.12;65.85;100375.94;1634725;85;22117;-57
2022/08/20 10:34:31;;;;;;;24.92;6.60;;;;;;;28.15;65.53;100369.16;1653847;84;21337;-58
2022/08/20 10:37:40;;;;;;;18.15;6.25;;;;;;;28.20;65.53;100373.91;1631893;84;21295;-57
2022/08/20 10:40:52;;;;;;;27.55;6.45;;;;;;;28.28;65.47;100368.52;1614561;85;21900;-57
2022/08/20 10:44:00;;;;;;;22.75;7.20;;;;;;;28.28;65.20;100368.52;1636072;83;21264;-57
2022/08/20 10:47:26;;;;;;;26.70;7.50;;;;;;;28.38;65.17;100369.01;1633262;84;21299;-58
2022/08/20 10:50:31;;;;;;;19.80;6.47;;;;;;;28.52;65.05;100370.05;1646953;84;21285;-55
2022/08/20 10:53:39;;;;;;;18.87;6.25;;;;;;;28.63;64.85;100367.42;1615934;86;21321;-56
2022/08/20 10:56:45;;;;;;;20.05;5.72;;;;;;;28.77;64.85;100370.69;1648502;86;21196;-56
2022/08/20 10:59:53;;;;;;;23.12;6.37;;;;;;;28.88;64.60;100368.60;1653294;83;21293;-57
2022/08/20 11:02:58;;;;;;;31.48;6.58;;;;;;;28.96;64.50;100369.37;1649824;85;21740;-57
2022/08/20 11:06:05;;;;;;;23.32;6.78;;;;;;;29.10;64.49;100363.33;1618982;85;21599;-57
2022/08/20 11:09:13;;;;;;;24.47;6.12;;;;;;;29.27;64.34;100358.66;1630727;85;21314;-59
2022/08/20 11:12:20;;;;;;;18.05;6.55;;;;;;;29.43;64.07;100346.05;1662368;83;21219;-57
2022/08/20 11:15:27;;;;;;;26.30;6.42;;;;;;;29.49;63.77;100345.70;1640962;84;21294;-58
2022/08/20 11:18:33;;;;;;;28.12;7.50;;;;;;;29.61;63.69;100350.89;1642572;85;21819;-57
2022/08/20 11:21:46;;;;;;;22.65;6.78;;;;;;;29.73;63.48;100347.11;1631347;85;21226;-57
2022/08/20 11:24:50;;;;;;;29.67;6.33;;;;;;;29.79;63.22;100338.27;1637290;85;21234;-57
2022/08/20 11:27:57;;;;;;;27.98;6.20;;;;;;;29.90;63.02;100349.69;1634222;84;21323;-58
2022/08/20 11:31:04;;;;;;;28.83;6.30;;;;;;;29.98;62.91;100347.60;1641178;85;21276;-57
2022/08/20 11:34:12;;;;;;;18.37;6.33;;;;;;;30.00;62.54;100336.81;1641935;85;21356;-57
2022/08/20 11:37:20;;;;;;;21.52;6.05;;;;;;;30.07;62.44;100337.30;1639839;85;21253;-58
2022/08/20 11:40:26;;;;;;;13.45;5.00;;;;;;;30.16;62.28;100343.92;1654072;84;21254;-57
2022/08/20 11:43:34;;;;;;;19.15;5.08;;;;;;;30.19;62.01;100336.25;1633962;83;21279;-57
2022/08/20 11:46:41;;;;;;;16.80;5.30;;;;;;;30.19;61.79;100347.55;1632037;83;21272;-57
2022/08/20 11:49:50;;;;;;;15.90;5.65;;;;;;;30.24;61.62;100334.80;1666646;83;21783;-57
2022/08/20 11:52:57;;;;;;;25.08;5.45;;;;;;;30.29;61.47;100318.33;1676836;84;21245;-57
2022/08/20 11:56:06;;;;;;;26.50;5.50;;;;;;;30.38;61.25;100334.28;1665110;82;21877;-57
2022/08/20 11:59:13;;;;;;;16.37;5.05;;;;;;;30.45;61.16;100331.91;1638799;82;21259;-58
2022/08/20 12:02:20;;;;;;;14.63;4.65;;;;;;;30.46;60.86;100335.00;1651530;83;21566;-58
2022/08/20 12:05:28;;;;;;;14.78;5.45;;;;;;;30.48;60.67;100345.42;1670205;82;21235;-58
2022/08/20 12:08:33;;;;;;;17.30;5.08;;;;;;;30.45;60.36;100350.28;1660187;83;21231;-57
2022/08/20 12:11:40;;;;;;;21.90;4.85;;;;;;;30.49;60.32;100347.09;1668526;84;21239;-58
2022/08/20 12:14:48;;;;;;;18.62;5.08;;;;;;;30.61;60.28;100345.21;1673375;84;21228;-58
2022/08/20 12:17:53;;;;;;;22.17;5.58;;;;;;;30.63;59.87;100342.36;1667468;85;21192;-58
2022/08/20 12:21:01;;;;;;;24.30;5.22;;;;;;;30.70;59.63;100343.94;1638100;84;21328;-58
2022/08/20 12:24:07;;;;;;;31.12;6.28;;;;;;;30.68;59.25;100345.07;1656245;85;21244;-58
2022/08/20 12:27:34;;;;;;;26.97;5.58;;;;;;;30.63;59.01;100340.95;1637420;84;21747;-57
2022/08/20 12:30:47;;;;;;;27.65;6.28;;;;;;;30.62;58.85;100356.20;1629963;84;21371;-58
2022/08/20 12:33:51;;;;;;;23.92;5.90;;;;;;;30.65;58.83;100343.46;1633195;84;21804;-57
2022/08/20 12:37:10;;;;;;;28.62;5.97;;;;;;;30.63;58.44;100339.53;1680721;83;21294;-57
2022/08/20 12:40:28;;;;;;;26.10;7.05;;;;;;;30.56;58.20;100343.31;1664922;84;21245;-57
2022/08/20 12:43:38;;;;;;;28.85;5.78;;;;;;;30.43;58.01;100348.33;1631863;85;21260;-57
2022/08/20 12:46:44;;;;;;;31.40;6.22;;;;;;;30.38;57.95;100340.53;1633748;85;21298;-58
2022/08/20 12:49:52;;;;;;;29.40;5.85;;;;;;;30.35;57.80;100341.14;1637967;84;21273;-58
2022/08/20 12:52:59;;;;;;;30.20;6.37;;;;;;;30.29;57.62;100338.95;1630174;85;21841;-57
2022/08/20 12:56:09;;;;;;;27.10;5.55;;;;;;;30.17;57.31;100341.38;1640007;85;21205;-58
2022/08/20 12:59:20;;;;;;;31.37;5.53;;;;;;;30.11;57.32;100331.87;1653832;84;21606;-58
2022/08/20 13:02:24;;;;;;;25.05;6.25;;;;;;;30.16;57.31;100337.45;1668930;82;21194;-58
2022/08/20 13:05:35;;;;;;;32.08;6.10;;;;;;;30.26;57.28;100338.16;1657597;83;21742;-58
2022/08/20 13:08:40;;;;;;;25.08;6.20;;;;;;;30.40;57.23;100345.27;1640623;86;21242;-57
2022/08/20 13:11:48;;;;;;;23.05;5.15;;;;;;;30.47;56.92;100336.69;1648627;82;21813;-58
2022/08/20 13:14:54;;;;;;;31.90;5.85;;;;;;;30.62;56.76;100339.24;1649794;83;21585;-58
2022/08/20 13:18:05;;;;;;;28.57;4.85;;;;;;;30.77;56.46;100347.22;1653174;85;21700;-58
2022/08/20 13:21:11;;;;;;;18.20;5.70;;;;;;;30.80;56.08;100354.52;1653170;84;21313;-58
2022/08/20 13:24:20;;;;;;;29.42;6.22;;;;;;;30.85;55.95;100355.84;1668330;83;21753;-57
2022/08/20 13:27:28;;;;;;;27.42;5.60;;;;;;;30.95;55.70;100350.58;1668472;84;21253;-58
2022/08/20 13:30:40;;;;;;;23.32;5.65;;;;;;;30.97;55.37;100355.36;1677090;85;21271;-57
2022/08/20 13:33:48;;;;;;;27.48;6.15;;;;;;;30.92;55.07;100363.94;1672267;84;21241;-59
2022/08/20 13:36:54;;;;;;;32.48;6.33;;;;;;;30.73;54.78;100354.63;1648244;84;21244;-57
2022/08/20 13:40:01;;;;;;;24.75;5.85;;;;;;;30.67;54.79;100357.28;1632553;81;21278;-58
2022/08/20 13:43:10;;;;;;;28.87;5.75;;;;;;;30.71;54.69;100356.35;1603825;87;21241;-59
2022/08/20 13:46:16;;;;;;;25.85;6.67;;;;;;;30.64;54.50;100360.98;1647159;84;21785;-59
2022/08/20 13:49:22;;;;;;;36.40;6.87;;;;;;;30.56;54.30;100362.25;1650364;83;21764;-58
2022/08/20 13:52:30;;;;;;;39.60;7.10;;;;;;;30.50;54.23;100365.75;1654547;83;21304;-57
2022/08/20 13:55:36;;;;;;;39.92;13.38;;;;;;;30.49;54.08;100372.53;1655021;83;21294;-58
2022/08/20 13:58:42;;;;;;;33.92;8.05;;;;;;;30.43;53.90;100375.17;1654076;83;21222;-57
2022/08/20 14:01:54;;;;;;;30.82;7.22;;;;;;;30.36;53.76;100370.50;1683712;84;21784;-58
2022/08/20 14:05:05;;;;;;;27.75;6.22;;;;;;;30.22;53.54;100364.50;1647328;86;21246;-56
2022/08/20 14:08:26;;;;;;;36.77;7.60;;;;;;;29.95;53.45;100372.21;1658527;84;21287;-57
2022/08/20 14:11:31;;;;;;;36.70;6.97;;;;;;;29.86;53.56;100373.19;1658791;85;21695;-56
2022/08/20 14:14:38;;;;;;;39.98;6.90;;;;;;;29.84;53.58;100366.44;1650600;84;21283;-57
2022/08/20 14:17:45;;;;;;;31.35;6.97;;;;;;;29.82;53.50;100370.13;1636823;86;21240;-58
2022/08/20 14:20:54;;;;;;;33.40;7.33;;;;;;;29.84;53.50;100372.65;1666930;82;21288;-57
2022/08/20 14:24:01;;;;;;;37.00;7.75;;;;;;;29.80;53.36;100368.17;1678532;82;21259;-58
2022/08/20 14:27:13;;;;;;;36.35;7.42;;;;;;;29.75;53.26;100371.65;1674842;83;21247;-57
2022/08/20 14:30:21;;;;;;;33.30;7.37;;;;;;;29.51;53.12;100368.78;1669341;84;21223;-56